Time;durP1;ratioP1;P1;durP2;ratioP2;P2;SDS_P1;SDS_P2;PMS_P1;PMS_P2;Temp;Humidity;BMP_temperature;BMP_pressure;BME280_temperature;BME280_humidity;BME280_pressure;Samples;Min_cycle;Max_cycle;Signal;HPM_P1;HPM_P2
2023/06/26 00:00:20;;;;;;;1.83;1.73;;;16.10;95.60;;;;;;5073148;28;20216;-71
2023/06/26 00:02:45;;;;;;;1.27;1.17;;;16.00;96.00;;;;;;5073003;28;20410;-69
2023/06/26 00:05:13;;;;;;;1.80;1.27;;;;;;;;;;5073386;28;20165;-70
2023/06/26 00:07:39;;;;;;;3.53;1.83;;;16.10;95.70;;;;;;5073251;28;20168;-71
2023/06/26 00:10:05;;;;;;;2.40;2.20;;;16.00;96.30;;;;;;5073029;28;20437;-72
2023/06/26 00:12:31;;;;;;;4.33;2.10;;;16.00;96.70;;;;;;5072931;28;20408;-71
2023/06/26 00:14:58;;;;;;;1.40;0.97;;;16.00;97.10;;;;;;5073255;28;20403;-69
2023/06/26 00:17:24;;;;;;;1.07;1.07;;;15.90;97.60;;;;;;5073321;28;20408;-70
2023/06/26 00:19:51;;;;;;;1.20;1.20;;;15.90;97.70;;;;;;5073025;28;20438;-70
2023/06/26 00:22:16;;;;;;;2.20;2.00;;;15.90;97.90;;;;;;5073103;28;20473;-70
2023/06/26 00:24:42;;;;;;;1.03;1.03;;;15.90;98.20;;;;;;5073107;28;20404;-69
2023/06/26 00:27:08;;;;;;;2.90;2.70;;;15.90;98.30;;;;;;5073171;28;20197;-71
2023/06/26 00:29:33;;;;;;;2.37;2.20;;;15.80;97.90;;;;;;5072885;28;20272;-71
2023/06/26 00:31:59;;;;;;;1.60;1.07;;;15.80;98.00;;;;;;5072915;28;20169;-69
2023/06/26 00:34:25;;;;;;;2.50;1.97;;;15.90;97.90;;;;;;5075940;28;20173;-71
2023/06/26 00:36:50;;;;;;;2.47;2.13;;;16.00;97.60;;;;;;5076793;28;20173;-71
2023/06/26 00:39:16;;;;;;;1.93;1.70;;;16.00;97.80;;;;;;5076651;28;20186;-70
2023/06/26 00:41:41;;;;;;;1.23;1.13;;;15.90;97.90;;;;;;5076545;28;20195;-70
2023/06/26 00:44:07;;;;;;;1.50;1.40;;;15.90;98.10;;;;;;5076797;28;20163;-71
2023/06/26 00:46:34;;;;;;;2.60;2.40;;;15.90;98.80;;;;;;5076542;28;20184;-70
2023/06/26 00:49:01;;;;;;;2.13;2.03;;;15.80;98.70;;;;;;5076462;28;20258;-69
2023/06/26 00:51:29;;;;;;;2.50;2.30;;;15.90;98.30;;;;;;5076227;28;20427;-71
2023/06/26 00:53:56;;;;;;;1.70;1.60;;;15.90;98.30;;;;;;5076509;28;20400;-69
2023/06/26 00:56:22;;;;;;;4.30;2.60;;;15.90;98.50;;;;;;5076376;28;20770;-71
2023/06/26 00:58:48;;;;;;;2.40;1.67;;;15.80;98.60;;;;;;5076252;28;20441;-71
2023/06/26 01:01:17;;;;;;;1.63;1.53;;;15.80;98.60;;;;;;5076022;28;20459;-71
2023/06/26 01:03:52;;;;;;;2.57;1.90;;;15.90;98.40;;;;;;5076356;28;20162;-69
2023/06/26 01:06:21;;;;;;;2.10;1.33;;;15.80;98.40;;;;;;5076364;28;20410;-71
2023/06/26 01:08:47;;;;;;;3.27;2.13;;;15.80;98.90;;;;;;5076248;28;20437;-71
2023/06/26 01:11:14;;;;;;;1.40;1.30;;;15.90;99.00;;;;;;5075942;28;20437;-72
2023/06/26 01:13:42;;;;;;;4.43;2.13;;;15.90;99.00;;;;;;5076083;28;20399;-69
2023/06/26 01:16:09;;;;;;;2.43;2.23;;;15.80;99.10;;;;;;5076106;28;20414;-69
2023/06/26 01:18:37;;;;;;;2.47;2.27;;;15.90;99.20;;;;;;5076042;28;20485;-70
2023/06/26 01:21:04;;;;;;;1.03;1.03;;;15.70;99.30;;;;;;5075941;28;20447;-72
2023/06/26 01:23:47;;;;;;;2.03;1.93;;;15.70;99.50;;;;;;5076138;28;20755;-70
2023/06/26 01:26:23;;;;;;;1.60;1.50;;;15.80;99.60;;;;;;5075866;28;20402;-71
2023/06/26 01:28:53;;;;;;;2.10;1.90;;;15.80;99.90;;;;;;5075737;28;20461;-69
2023/06/26 01:31:20;;;;;;;2.73;2.53;;;15.80;99.90;;;;;;5075682;28;20903;-71
2023/06/26 01:33:47;;;;;;;1.90;1.70;;;15.70;99.90;;;;;;5075701;28;20768;-71
2023/06/26 01:36:13;;;;;;;1.10;1.10;;;15.70;99.90;;;;;;5075834;28;20414;-72
2023/06/26 01:38:38;;;;;;;1.63;1.37;;;15.60;99.90;;;;;;5075510;28;20428;-70
2023/06/26 01:41:05;;;;;;;2.53;2.33;;;15.60;99.90;;;;;;5075348;28;20466;-70
2023/06/26 01:43:55;;;;;;;3.90;3.30;;;15.60;99.90;;;;;;5075281;28;20185;-70
2023/06/26 01:46:41;;;;;;;2.37;1.73;;;15.60;99.90;;;;;;5075716;28;20400;-71
2023/06/26 01:49:28;;;;;;;2.37;2.13;;;15.60;99.90;;;;;;5074745;28;20962;-70
2023/06/26 01:52:03;;;;;;;3.43;3.13;;;15.60;99.90;;;;;;5075217;28;20488;-69
2023/06/26 01:54:33;;;;;;;2.03;1.93;;;15.60;99.90;;;;;;5075553;28;20816;-69
2023/06/26 01:57:00;;;;;;;2.07;1.90;;;15.60;99.90;;;;;;5075418;28;20461;-70
2023/06/26 01:59:28;;;;;;;2.93;2.27;;;15.60;99.90;;;;;;5075608;28;20798;-71
2023/06/26 02:01:54;;;;;;;2.70;2.40;;;15.70;99.90;;;;;;5074895;28;20490;-70
2023/06/26 02:04:20;;;;;;;2.47;2.23;;;15.80;99.90;;;;;;5075228;28;20434;-69
2023/06/26 02:06:45;;;;;;;1.70;1.60;;;15.80;99.90;;;;;;5075219;28;20402;-69
2023/06/26 02:09:11;;;;;;;2.30;2.20;;;15.70;99.90;;;;;;5074939;28;20431;-71
2023/06/26 02:11:37;;;;;;;1.57;1.47;;;15.70;99.90;;;;;;5074819;28;20175;-70
2023/06/26 02:14:02;;;;;;;1.73;1.60;;;15.70;99.90;;;;;;5074909;28;20630;-72
2023/06/26 02:16:29;;;;;;;3.90;1.50;;;15.60;99.90;;;;;;5074948;28;20180;-71
2023/06/26 02:18:54;;;;;;;1.73;1.63;;;15.60;99.90;;;;;;5075230;28;20199;-70
2023/06/26 02:21:20;;;;;;;2.97;1.87;;;15.50;99.90;;;;;;5074602;28;20813;-69
2023/06/26 02:23:46;;;;;;;1.37;1.27;;;15.60;99.90;;;;;;5075044;28;20175;-71
2023/06/26 02:26:11;;;;;;;2.20;2.00;;;15.60;99.90;;;;;;5074700;28;20201;-72
2023/06/26 02:28:37;;;;;;;3.03;1.80;;;15.50;99.90;;;;;;5074827;28;20274;-69
2023/06/26 02:31:02;;;;;;;3.07;2.87;;;15.50;99.90;;;;;;5074434;28;20169;-70
2023/06/26 02:33:28;;;;;;;2.70;2.17;;;15.50;99.90;;;;;;5074563;28;20174;-70
2023/06/26 02:35:54;;;;;;;1.67;1.57;;;15.40;99.90;;;;;;5074593;28;20259;-69
2023/06/26 02:38:19;;;;;;;2.17;1.87;;;15.40;99.90;;;;;;5074481;28;20198;-71
2023/06/26 02:40:45;;;;;;;1.37;1.27;;;;;;;;;;5074272;28;20206;-70
2023/06/26 02:43:11;;;;;;;1.83;1.73;;;15.60;99.90;;;;;;5074125;28;20175;-70
2023/06/26 02:45:36;;;;;;;2.63;2.43;;;15.60;99.90;;;;;;5074319;28;20399;-71
2023/06/26 02:48:02;;;;;;;2.30;2.10;;;15.50;99.90;;;;;;5074300;28;20336;-70
2023/06/26 02:50:28;;;;;;;1.87;1.67;;;15.50;99.90;;;;;;5074120;28;20183;-70
2023/06/26 02:52:54;;;;;;;3.20;2.90;;;15.40;99.90;;;;;;5074159;28;20193;-72
2023/06/26 02:55:20;;;;;;;2.17;2.00;;;15.40;99.90;;;;;;5073664;28;20173;-71
2023/06/26 02:57:46;;;;;;;3.03;2.83;;;15.40;99.90;;;;;;5074309;28;20412;-71
2023/06/26 03:00:12;;;;;;;2.47;2.33;;;15.60;99.90;;;;;;5074083;28;20456;-70
2023/06/26 03:02:38;;;;;;;3.67;2.50;;;15.60;99.90;;;;;;5073887;28;20553;-69
2023/06/26 03:05:04;;;;;;;3.60;1.50;;;15.60;99.90;;;;;;5074080;28;20487;-71
2023/06/26 03:07:30;;;;;;;1.97;1.87;;;15.70;99.90;;;;;;5074517;28;20179;-70
2023/06/26 03:09:56;;;;;;;2.37;2.20;;;15.70;99.90;;;;;;5073773;28;20542;-71
2023/06/26 03:12:21;;;;;;;2.33;2.10;;;15.70;99.90;;;;;;5073706;28;20231;-71
2023/06/26 03:14:47;;;;;;;2.27;2.10;;;15.60;99.90;;;;;;5073756;28;20204;-70
2023/06/26 03:17:13;;;;;;;4.57;2.90;;;15.50;99.90;;;;;;5073839;28;20174;-69
2023/06/26 03:19:38;;;;;;;2.33;2.23;;;15.40;99.90;;;;;;5073659;28;20724;-69
2023/06/26 03:22:04;;;;;;;1.00;1.00;;;15.40;99.90;;;;;;5073499;28;20196;-71
2023/06/26 03:24:30;;;;;;;2.30;2.20;;;15.30;99.90;;;;;;5073412;28;20200;-70
2023/06/26 03:26:55;;;;;;;0.83;0.83;;;15.40;99.90;;;;;;5073859;28;20171;-70
2023/06/26 03:29:21;;;;;;;2.27;2.10;;;15.40;99.90;;;;;;5073586;28;20212;-71
2023/06/26 03:31:47;;;;;;;3.20;2.23;;;15.50;99.90;;;;;;5073455;28;20180;-71
2023/06/26 03:34:12;;;;;;;2.00;1.90;;;15.50;99.90;;;;;;5073624;28;20176;-72
2023/06/26 03:36:38;;;;;;;3.33;3.03;;;15.60;99.90;;;;;;5073673;28;20616;-70
2023/06/26 03:39:04;;;;;;;2.03;1.93;;;15.70;99.90;;;;;;5073551;28;20244;-70
2023/06/26 03:41:29;;;;;;;2.87;2.67;;;15.70;99.90;;;;;;5073237;28;20285;-71
2023/06/26 03:43:56;;;;;;;2.93;2.00;;;15.70;99.90;;;;;;5073782;28;20169;-71
2023/06/26 03:46:22;;;;;;;3.00;2.37;;;15.70;99.90;;;;;;5073627;28;20439;-72
2023/06/26 03:48:47;;;;;;;5.23;2.30;;;15.70;99.90;;;;;;5073516;28;20852;-71
2023/06/26 03:51:14;;;;;;;5.10;3.20;;;15.70;99.90;;;;;;5073008;28;20199;-70
2023/06/26 03:53:39;;;;;;;0.90;0.90;;;15.80;99.90;;;;;;5073576;28;20230;-71
2023/06/26 03:56:05;;;;;;;1.37;1.27;;;15.80;99.90;;;;;;5073345;28;20410;-71
2023/06/26 03:58:30;;;;;;;3.50;2.17;;;15.80;99.90;;;;;;5073301;28;20189;-71
2023/06/26 04:00:57;;;;;;;1.80;1.70;;;15.80;99.90;;;;;;5073302;28;20193;-69
2023/06/26 04:03:23;;;;;;;3.90;2.27;;;15.80;99.90;;;;;;5073375;28;20162;-69
2023/06/26 04:05:49;;;;;;;1.97;1.77;;;15.80;99.90;;;;;;5073381;28;20396;-70
2023/06/26 04:08:14;;;;;;;2.07;1.93;;;15.80;99.90;;;;;;5076359;28;20198;-71
2023/06/26 04:10:40;;;;;;;1.90;1.77;;;15.80;99.90;;;;;;5077328;28;20165;-71
2023/06/26 04:13:05;;;;;;;1.97;1.87;;;15.80;99.90;;;;;;5077185;28;20177;-70
2023/06/26 04:15:31;;;;;;;3.63;3.30;;;15.90;99.90;;;;;;5077456;28;20203;-69
2023/06/26 04:17:57;;;;;;;1.43;1.00;;;15.80;99.90;;;;;;5077263;28;20178;-71
2023/06/26 04:20:22;;;;;;;1.73;1.63;;;16.10;99.90;;;;;;5077008;28;20173;-71
2023/06/26 04:22:48;;;;;;;2.27;2.17;;;16.10;99.90;;;;;;5076885;28;20215;-70
2023/06/26 04:25:14;;;;;;;1.50;1.40;;;16.00;99.90;;;;;;5077072;28;20173;-70
2023/06/26 04:27:40;;;;;;;2.20;2.00;;;;;;;;;;5077090;28;20191;-71
2023/06/26 04:30:06;;;;;;;2.90;2.70;;;16.40;99.90;;;;;;5076850;28;20195;-71
2023/06/26 04:32:32;;;;;;;2.10;1.77;;;16.80;99.90;;;;;;5076687;28;20407;-70
2023/06/26 04:34:57;;;;;;;1.70;1.60;;;17.20;99.90;;;;;;5076717;28;20412;-71
2023/06/26 04:37:24;;;;;;;2.97;2.77;;;17.60;99.90;;;;;;5076798;28;20166;-72
2023/06/26 04:39:50;;;;;;;1.83;1.67;;;18.00;99.90;;;;;;5076684;28;20227;-70
2023/06/26 04:42:16;;;;;;;1.67;1.57;;;18.50;99.90;;;;;;5076578;28;20462;-71
2023/06/26 04:44:42;;;;;;;2.27;2.07;;;19.00;99.80;;;;;;5076753;28;20402;-70
2023/06/26 04:47:08;;;;;;;2.03;1.57;;;19.20;98.30;;;;;;5076783;28;20175;-70
2023/06/26 04:49:34;;;;;;;2.40;2.20;;;19.20;97.60;;;;;;5076464;28;20474;-71
2023/06/26 04:52:00;;;;;;;2.53;1.73;;;19.30;97.60;;;;;;5076624;28;20953;-71
2023/06/26 04:54:26;;;;;;;3.40;3.10;;;19.40;97.40;;;;;;5076427;28;20625;-70
2023/06/26 04:56:52;;;;;;;1.73;1.60;;;19.50;97.50;;;;;;5076684;28;20557;-71
2023/06/26 04:59:17;;;;;;;2.70;2.37;;;19.70;97.10;;;;;;5076295;28;20424;-72
2023/06/26 05:01:47;;;;;;;2.20;2.00;;;19.70;96.80;;;;;;5076170;28;20653;-71
2023/06/26 05:04:13;;;;;;;1.90;1.80;;;19.70;97.00;;;;;;5076310;28;20155;-71
2023/06/26 05:06:39;;;;;;;1.57;1.47;;;19.70;96.60;;;;;;5076251;28;20906;-70
2023/06/26 05:09:04;;;;;;;2.17;1.97;;;19.70;96.90;;;;;;5076230;28;20420;-71
2023/06/26 05:11:30;;;;;;;1.60;1.50;;;19.80;96.90;;;;;;5076175;28;20170;-71
2023/06/26 05:13:56;;;;;;;1.70;1.60;;;19.90;96.60;;;;;;5076349;28;20253;-72
2023/06/26 05:16:21;;;;;;;1.20;1.10;;;20.00;96.20;;;;;;5076239;28;20608;-71
2023/06/26 05:18:47;;;;;;;2.47;2.00;;;20.10;96.50;;;;;;5075159;28;20185;-70
2023/06/26 05:21:13;;;;;;;1.90;1.73;;;20.20;96.40;;;;;;5075707;28;20688;-72
2023/06/26 05:23:39;;;;;;;3.10;2.30;;;20.30;96.30;;;;;;5075995;28;20265;-72
2023/06/26 05:26:05;;;;;;;1.53;1.43;;;20.40;96.00;;;;;;5075907;28;20401;-70
2023/06/26 05:28:31;;;;;;;2.03;1.93;;;20.40;96.00;;;;;;5075938;28;20770;-70
2023/06/26 05:30:58;;;;;;;2.03;1.90;;;20.60;96.00;;;;;;5075680;28;20402;-71
2023/06/26 05:33:25;;;;;;;1.90;1.80;;;20.70;95.70;;;;;;5075894;28;20178;-70
2023/06/26 05:35:52;;;;;;;4.10;1.77;;;20.80;95.30;;;;;;5075644;28;20564;-70
2023/06/26 05:38:18;;;;;;;2.07;1.90;;;20.80;95.80;;;;;;5075987;28;20468;-72
2023/06/26 05:40:44;;;;;;;4.43;2.60;;;20.90;95.20;;;;;;5075593;28;20475;-72
2023/06/26 05:43:10;;;;;;;1.83;1.73;;;21.00;95.20;;;;;;5075544;28;20398;-71
2023/06/26 05:45:36;;;;;;;0.93;0.90;;;21.30;95.60;;;;;;5075666;28;20406;-72
2023/06/26 05:48:02;;;;;;;2.07;1.97;;;21.50;95.30;;;;;;5075589;28;20431;-71
2023/06/26 05:50:28;;;;;;;2.77;2.57;;;21.70;95.00;;;;;;5075354;28;20243;-72
2023/06/26 05:52:55;;;;;;;2.03;1.90;;;21.70;94.60;;;;;;5075330;28;20172;-70
2023/06/26 05:55:21;;;;;;;1.37;1.27;;;21.70;95.10;;;;;;5075369;28;20449;-72
2023/06/26 05:57:47;;;;;;;0.97;0.90;;;22.10;99.90;;;;;;5075351;28;20402;-70
2023/06/26 06:00:13;;;;;;;1.87;1.73;;;21.90;94.60;;;;;;5075372;28;20482;-71
2023/06/26 06:02:41;;;;;;;1.37;1.07;;;22.00;94.60;;;;;;5074988;28;20513;-72
2023/06/26 06:05:07;;;;;;;1.80;1.70;;;22.10;94.60;;;;;;5075282;28;20403;-70
2023/06/26 06:07:34;;;;;;;1.90;1.80;;;22.20;94.40;;;;;;5075132;28;20388;-70
2023/06/26 06:10:00;;;;;;;2.23;2.03;;;22.40;93.90;;;;;;5075188;28;20523;-71
2023/06/26 06:12:26;;;;;;;3.30;1.87;;;22.90;93.80;;;;;;5074798;28;20408;-73
2023/06/26 06:14:52;;;;;;;1.60;1.50;;;23.60;92.70;;;;;;5075114;28;20387;-73
2023/06/26 06:17:18;;;;;;;2.97;1.80;;;24.40;92.00;;;;;;5074852;28;20412;-71
2023/06/26 06:19:45;;;;;;;1.53;1.27;;;25.20;90.40;;;;;;5074757;28;20428;-71
2023/06/26 06:22:10;;;;;;;2.23;2.10;;;26.10;89.50;;;;;;5074628;28;20793;-70
2023/06/26 06:24:36;;;;;;;2.03;1.80;;;27.40;82.00;;;;;;5074787;28;20414;-73
2023/06/26 06:27:02;;;;;;;1.40;1.30;;;29.00;74.50;;;;;;5074878;28;20176;-71
2023/06/26 06:29:27;;;;;;;1.60;1.27;;;30.80;71.10;;;;;;5074662;28;20185;-71
2023/06/26 06:31:53;;;;;;;3.50;1.90;;;32.20;63.10;;;;;;5073385;28;20170;-71
2023/06/26 06:34:19;;;;;;;4.80;1.90;;;33.70;58.50;;;;;;5074498;28;20204;-73
2023/06/26 06:36:44;;;;;;;1.90;1.63;;;34.90;51.10;;;;;;5074570;28;20169;-72
2023/06/26 06:39:10;;;;;;;2.40;2.10;;;35.40;51.10;;;;;;5074471;28;20193;-72
2023/06/26 06:41:36;;;;;;;1.37;1.17;;;36.40;48.70;;;;;;5074261;28;20192;-72
2023/06/26 06:44:01;;;;;;;1.40;1.30;;;37.40;46.30;;;;;;5074572;28;20166;-73
2023/06/26 06:46:27;;;;;;;0.90;0.90;;;38.20;44.50;;;;;;5074792;28;20170;-72
2023/06/26 06:48:53;;;;;;;1.60;1.50;;;38.00;40.50;;;;;;5074194;28;20192;-71
2023/06/26 06:51:18;;;;;;;1.80;1.30;;;37.20;42.90;;;;;;5074150;28;20196;-73
2023/06/26 06:53:44;;;;;;;1.60;1.50;;;36.30;41.50;;;;;;5074389;28;20408;-73
2023/06/26 06:56:10;;;;;;;1.40;1.30;;;35.20;41.80;;;;;;5074078;28;20169;-73
2023/06/26 06:58:35;;;;;;;2.10;1.40;;;34.80;43.20;;;;;;5074014;28;20185;-74
2023/06/26 07:01:04;;;;;;;1.70;1.57;;;35.30;44.40;;;;;;5074020;28;20585;-74
2023/06/26 07:03:30;;;;;;;2.40;2.07;;;36.10;43.90;;;;;;5074015;28;20170;-73
2023/06/26 07:05:56;;;;;;;1.23;1.03;;;36.70;41.30;;;;;;5074070;28;20400;-72
2023/06/26 07:08:21;;;;;;;1.67;1.23;;;37.20;41.00;;;;;;5074003;28;20258;-74
2023/06/26 07:10:47;;;;;;;1.53;1.40;;;37.10;41.50;;;;;;5074132;28;20195;-74
2023/06/26 07:13:13;;;;;;;1.73;1.40;;;36.90;42.90;;;;;;5073824;28;20172;-73
2023/06/26 07:15:38;;;;;;;2.23;1.50;;;36.70;41.40;;;;;;5073768;28;20174;-72
2023/06/26 07:18:04;;;;;;;2.27;1.50;;;36.70;40.00;;;;;;5073715;28;20192;-73
2023/06/26 07:20:30;;;;;;;2.97;2.00;;;36.20;42.60;;;;;;5073594;28;20173;-73
2023/06/26 07:22:55;;;;;;;1.73;1.40;;;34.40;42.40;;;;;;5073594;28;20460;-72
2023/06/26 07:25:21;;;;;;;1.97;1.30;;;33.60;44.50;;;;;;5073672;28;20165;-72
2023/06/26 07:27:47;;;;;;;2.17;1.97;;;32.40;55.20;;;;;;5073558;28;20176;-73
2023/06/26 07:30:13;;;;;;;2.43;1.40;;;32.60;44.40;;;;;;5073495;28;20219;-73
2023/06/26 07:32:40;;;;;;;1.90;1.67;;;32.30;46.10;;;;;;5073391;28;20546;-73
2023/06/26 07:35:06;;;;;;;3.00;1.63;;;32.30;46.90;;;;;;5073647;28;20162;-73
2023/06/26 07:37:32;;;;;;;1.60;1.37;;;32.30;47.30;;;;;;5073629;28;20391;-73
2023/06/26 07:39:57;;;;;;;2.67;1.50;;;32.90;47.60;;;;;;5073382;28;20434;-74
2023/06/26 07:42:23;;;;;;;2.57;2.03;;;33.40;46.20;;;;;;5072871;28;20194;-71
2023/06/26 07:44:48;;;;;;;1.53;1.10;;;33.30;45.10;;;;;;5073373;28;20166;-72
2023/06/26 07:47:15;;;;;;;1.40;1.30;;;32.60;44.50;;;;;;5073464;28;20169;-72
2023/06/26 07:49:40;;;;;;;1.73;1.57;;;33.00;46.60;;;;;;5073393;28;20202;-72
2023/06/26 07:52:10;;;;;;;1.13;1.10;;;33.80;45.80;;;;;;5073141;28;20985;-73
2023/06/26 07:54:35;;;;;;;2.03;1.43;;;34.80;45.70;;;;;;5073370;28;20419;-73
2023/06/26 07:57:04;;;;;;;5.33;1.73;;;36.00;43.30;;;;;;5073440;28;20896;-73
2023/06/26 07:59:30;;;;;;;1.43;1.33;;;36.90;40.60;;;;;;5073246;28;20199;-74
2023/06/26 08:01:57;;;;;;;2.07;1.30;;;37.70;40.20;;;;;;5073005;28;20451;-71
2023/06/26 08:04:25;;;;;;;2.03;1.53;;;38.30;38.70;;;;;;5073312;28;20809;-72
2023/06/26 08:06:53;;;;;;;1.70;1.30;;;38.80;38.30;;;;;;5073453;28;20752;-72
2023/06/26 08:09:20;;;;;;;1.43;1.33;;;38.90;36.90;;;;;;5073048;28;20435;-72
2023/06/26 08:11:46;;;;;;;1.50;1.40;;;39.70;35.90;;;;;;5073070;28;20499;-73
2023/06/26 08:14:12;;;;;;;2.23;1.60;;;38.80;36.70;;;;;;5073117;28;20443;-71
2023/06/26 08:16:39;;;;;;;2.03;1.83;;;39.20;37.70;;;;;;5073352;28;20174;-74
2023/06/26 08:19:05;;;;;;;1.73;1.57;;;40.20;36.60;;;;;;5073139;28;20431;-73
2023/06/26 08:21:30;;;;;;;2.60;1.80;;;40.70;35.00;;;;;;5072802;28;20510;-73
2023/06/26 08:23:56;;;;;;;2.03;1.60;;;40.50;35.90;;;;;;5072960;28;20178;-72
2023/06/26 08:26:22;;;;;;;3.20;1.10;;;39.90;35.20;;;;;;5072954;28;20178;-74
2023/06/26 08:28:47;;;;;;;2.33;1.53;;;38.60;36.30;;;;;;5073075;28;20242;-74
2023/06/26 08:31:13;;;;;;;1.43;1.33;;;37.70;38.70;;;;;;5072752;28;20197;-72
2023/06/26 08:33:38;;;;;;;2.70;2.10;;;37.40;38.30;;;;;;5072941;28;20515;-73
2023/06/26 08:36:04;;;;;;;2.07;1.90;;;37.20;38.80;;;;;;5071802;28;20629;-74
2023/06/26 08:38:30;;;;;;;2.07;1.87;;;37.40;39.50;;;;;;5072995;28;20212;-73
2023/06/26 08:40:55;;;;;;;1.53;1.43;;;37.40;39.70;;;;;;5072640;28;20189;-73
2023/06/26 08:43:21;;;;;;;1.50;1.40;;;36.90;39.00;;;;;;5073089;28;20170;-73
2023/06/26 08:45:51;;;;;;;2.17;1.63;;;36.20;41.80;;;;;;5072997;28;20173;-73
2023/06/26 08:48:17;;;;;;;1.87;1.50;;;35.70;41.20;;;;;;5072856;28;20481;-73
2023/06/26 08:50:43;;;;;;;1.50;1.13;;;36.30;41.70;;;;;;5072595;28;20423;-73
2023/06/26 08:53:34;;;;;;;7.63;2.03;;;36.50;42.00;;;;;;5072733;28;20503;-72
2023/06/26 08:56:00;;;;;;;3.30;1.60;;;36.40;41.40;;;;;;5076492;28;20403;-74
2023/06/26 08:58:27;;;;;;;2.30;2.10;;;36.40;40.30;;;;;;5076506;28;20431;-72
2023/06/26 09:00:53;;;;;;;2.07;1.90;;;37.10;40.00;;;;;;5076651;28;20447;-71
2023/06/26 09:03:19;;;;;;;1.30;1.20;;;37.60;39.80;;;;;;5076276;28;20779;-73
2023/06/26 09:05:44;;;;;;;2.20;2.00;;;37.30;38.90;;;;;;5076346;28;20494;-71
2023/06/26 09:08:10;;;;;;;2.87;2.10;;;37.40;39.10;;;;;;5076166;28;20527;-74
2023/06/26 09:10:36;;;;;;;1.67;1.57;;;37.50;40.10;;;;;;5076476;28;20676;-72
2023/06/26 09:13:02;;;;;;;1.73;1.20;;;38.10;37.70;;;;;;5076001;28;20166;-72
2023/06/26 09:15:45;;;;;;;1.60;1.50;;;38.60;39.10;;;;;;5076267;28;20527;-72
2023/06/26 09:18:12;;;;;;;1.40;1.30;;;38.90;38.00;;;;;;5076154;28;20435;-72
2023/06/26 09:20:37;;;;;;;2.43;2.23;;;38.40;38.20;;;;;;5076106;28;20491;-72
2023/06/26 09:23:04;;;;;;;1.57;1.47;;;38.50;37.60;;;;;;5075836;28;20475;-74
2023/06/26 09:25:30;;;;;;;2.40;1.83;;;38.20;38.20;;;;;;5075962;28;20601;-73
2023/06/26 09:27:56;;;;;;;3.10;2.67;;;37.60;47.30;;;;;;5076235;28;20765;-73
2023/06/26 09:30:22;;;;;;;1.87;1.70;;;37.60;38.30;;;;;;5075855;28;20400;-74
2023/06/26 09:32:49;;;;;;;2.20;2.00;;;37.20;39.80;;;;;;5075378;28;20463;-73
2023/06/26 09:35:15;;;;;;;2.67;2.40;;;37.60;38.90;;;;;;5075850;28;20166;-72
2023/06/26 09:37:41;;;;;;;2.50;1.63;;;38.00;38.20;;;;;;5075884;28;20917;-71
2023/06/26 09:40:07;;;;;;;2.20;1.80;;;38.10;38.70;;;;;;5075763;28;20185;-75
2023/06/26 09:42:33;;;;;;;1.80;1.70;;;38.30;38.30;;;;;;5075664;28;20177;-73
2023/06/26 09:44:59;;;;;;;2.90;1.60;;;38.40;37.60;;;;;;5075700;28;20396;-74
2023/06/26 09:47:25;;;;;;;1.87;1.77;;;38.10;38.00;;;;;;5075557;28;20177;-71
2023/06/26 09:49:52;;;;;;;1.87;1.70;;;36.80;42.60;;;;;;5075163;28;20968;-72
2023/06/26 09:52:19;;;;;;;2.93;2.10;;;36.70;42.80;;;;;;5075396;28;20255;-73
2023/06/26 09:54:45;;;;;;;2.27;1.70;;;36.90;41.30;;;;;;5075382;28;20399;-73
2023/06/26 09:57:17;;;;;;;1.70;1.60;;;35.50;42.70;;;;;;5075870;28;20750;-74
2023/06/26 09:59:46;;;;;;;2.10;1.90;;;35.00;43.80;;;;;;5075393;28;20438;-73
2023/06/26 10:02:12;;;;;;;2.10;1.80;;;35.40;45.00;;;;;;5075043;28;20399;-73
2023/06/26 10:04:38;;;;;;;1.70;1.60;;;35.40;44.50;;;;;;5075009;28;20461;-72
2023/06/26 10:07:10;;;;;;;2.13;1.73;;;35.10;43.50;;;;;;5075224;28;20646;-72
2023/06/26 10:09:41;;;;;;;4.20;2.60;;;34.40;45.40;;;;;;5075010;28;20442;-72
2023/06/26 10:12:11;;;;;;;2.83;2.60;;;33.30;47.60;;;;;;5075006;28;20530;-72
2023/06/26 10:14:41;;;;;;;2.20;2.00;;;33.00;47.40;;;;;;5075085;28;20392;-71
2023/06/26 10:17:10;;;;;;;2.33;2.13;;;32.70;47.50;;;;;;5074951;28;20392;-72
2023/06/26 10:19:38;;;;;;;2.13;1.83;;;32.20;49.70;;;;;;5074950;28;20476;-73
2023/06/26 10:22:04;;;;;;;4.90;2.40;;;31.70;50.50;;;;;;5074637;28;20964;-72
2023/06/26 10:24:33;;;;;;;2.00;1.80;;;31.50;52.50;;;;;;5074898;28;20399;-74
2023/06/26 10:27:16;;;;;;;3.10;2.83;;;31.90;49.10;;;;;;5075474;28;20412;-73
2023/06/26 10:29:45;;;;;;;2.40;2.20;;;32.00;49.30;;;;;;5073416;28;20431;-73
2023/06/26 10:32:12;;;;;;;2.77;2.20;;;31.60;48.70;;;;;;5074518;28;20447;-73
2023/06/26 10:34:38;;;;;;;3.20;2.00;;;31.50;50.40;;;;;;5074683;28;20880;-71
2023/06/26 10:37:04;;;;;;;3.27;2.60;;;31.20;51.90;;;;;;5074753;28;20416;-73
2023/06/26 10:39:56;;;;;;;2.67;2.37;;;31.00;52.30;;;;;;5074429;28;20231;-72
2023/06/26 10:42:35;;;;;;;3.17;2.50;;;30.70;51.30;;;;;;5073920;28;20424;-73
2023/06/26 10:45:27;;;;;;;2.40;1.97;;;30.70;54.10;;;;;;5074479;28;20404;-71
2023/06/26 10:47:53;;;;;;;2.60;1.90;;;31.30;56.20;;;;;;5074441;28;20580;-73
2023/06/26 10:50:28;;;;;;;3.33;2.43;;;31.60;51.20;;;;;;5074598;28;20923;-73
2023/06/26 10:53:09;;;;;;;3.20;2.90;;;32.10;52.90;;;;;;5074045;28;20615;-72
2023/06/26 10:55:41;;;;;;;2.80;2.53;;;32.40;53.80;;;;;;5074427;28;20396;-74
2023/06/26 10:58:47;;;;;;;3.37;2.40;;;32.30;50.70;;;;;;5074244;28;20411;-71
2023/06/26 11:01:22;;;;;;;4.07;2.50;;;31.70;51.00;;;;;;5073793;28;20427;-73
2023/06/26 11:03:57;;;;;;;3.50;3.27;;;31.40;52.30;;;;;;5074111;28;20403;-74
2023/06/26 11:06:23;;;;;;;2.27;2.17;;;30.80;53.30;;;;;;5074444;28;20867;-74
2023/06/26 11:08:50;;;;;;;1.67;1.53;;;30.40;55.10;;;;;;5073963;28;20419;-73
2023/06/26 11:11:16;;;;;;;2.20;2.00;;;29.90;55.90;;;;;;5073598;28;20204;-74
2023/06/26 11:13:42;;;;;;;3.57;2.30;;;29.30;54.90;;;;;;5073889;28;20422;-72
2023/06/26 11:16:08;;;;;;;7.57;2.77;;;29.00;56.60;;;;;;5073680;28;20415;-74
2023/06/26 11:18:34;;;;;;;3.43;1.80;;;28.80;57.20;;;;;;5073579;28;20501;-74
2023/06/26 11:21:11;;;;;;;2.10;2.00;;;28.80;57.00;;;;;;5073556;28;21044;-72
2023/06/26 11:23:37;;;;;;;2.20;2.00;;;29.20;59.10;;;;;;5073970;28;20177;-72
2023/06/26 11:26:21;;;;;;;2.30;1.80;;;29.60;57.00;;;;;;5073631;28;20811;-71
2023/06/26 11:28:48;;;;;;;3.70;2.43;;;29.60;57.40;;;;;;5073859;28;20460;-73
2023/06/26 11:31:33;;;;;;;2.17;1.97;;;29.40;56.00;;;;;;5073345;28;20809;-71
2023/06/26 11:34:01;;;;;;;2.23;2.03;;;29.10;57.40;;;;;;5073905;28;20388;-73
2023/06/26 11:36:27;;;;;;;2.77;1.93;;;29.10;58.30;;;;;;5073555;28;20478;-72
2023/06/26 11:39:05;;;;;;;2.10;1.90;;;29.20;58.10;;;;;;5073468;28;20464;-72
2023/06/26 11:41:32;;;;;;;2.20;1.87;;;29.20;58.80;;;;;;5073433;28;20777;-73
2023/06/26 11:44:02;;;;;;;2.40;2.23;;;29.30;58.50;;;;;;5073626;28;20405;-73
2023/06/26 11:46:28;;;;;;;3.53;2.63;;;29.40;58.50;;;;;;5073620;28;20461;-72
2023/06/26 11:48:54;;;;;;;2.70;2.50;;;29.30;58.20;;;;;;5073286;28;20423;-71
2023/06/26 11:51:20;;;;;;;4.00;2.77;;;29.20;58.20;;;;;;5073028;28;20482;-70
2023/06/26 11:53:47;;;;;;;2.23;2.03;;;29.30;58.80;;;;;;5073426;28;20406;-73
2023/06/26 11:56:15;;;;;;;3.27;2.97;;;29.30;58.60;;;;;;5073431;28;20407;-71
2023/06/26 11:59:04;;;;;;;4.73;2.57;;;29.30;57.70;;;;;;5073382;28;20420;-74
2023/06/26 12:01:40;;;;;;;3.00;2.30;;;29.20;57.40;;;;;;5073409;28;20410;-72
2023/06/26 12:04:08;;;;;;;1.97;1.60;;;28.70;58.80;;;;;;5073354;28;20498;-73
2023/06/26 12:06:42;;;;;;;3.63;2.10;;;28.80;59.80;;;;;;5073405;28;20498;-72
2023/06/26 12:09:11;;;;;;;2.80;1.73;;;28.70;63.00;;;;;;5073059;28;20426;-70
2023/06/26 12:11:38;;;;;;;1.73;1.63;;;28.40;61.30;;;;;;5073087;28;20462;-71
2023/06/26 12:14:06;;;;;;;2.77;2.33;;;28.50;61.80;;;;;;5073158;28;20407;-71
2023/06/26 12:16:34;;;;;;;3.03;2.40;;;28.60;61.10;;;;;;5073244;28;20379;-72
2023/06/26 12:19:02;;;;;;;1.50;1.40;;;28.70;61.20;;;;;;5073099;28;20909;-72
2023/06/26 12:21:48;;;;;;;1.50;1.40;;;28.60;59.50;;;;;;5072945;28;20452;-73
2023/06/26 12:24:19;;;;;;;2.47;2.33;;;28.50;62.20;;;;;;5072987;28;20399;-72
2023/06/26 12:26:46;;;;;;;1.90;1.80;;;28.30;63.00;;;;;;5073382;28;20403;-71
2023/06/26 12:29:15;;;;;;;4.43;2.40;;;28.40;63.30;;;;;;5076233;28;20430;-71
2023/06/26 12:31:42;;;;;;;3.13;2.27;;;28.60;62.40;;;;;;5076716;28;20455;-71
2023/06/26 12:34:14;;;;;;;4.73;2.23;;;28.40;59.70;;;;;;5077089;28;20909;-70
2023/06/26 12:36:44;;;;;;;2.87;2.60;;;28.20;63.30;;;;;;5077072;28;20819;-72
2023/06/26 12:39:12;;;;;;;2.47;2.27;;;28.20;61.90;;;;;;5076684;28;20432;-71
2023/06/26 12:41:46;;;;;;;1.83;1.70;;;28.20;61.60;;;;;;5076652;28;20414;-72
2023/06/26 12:44:38;;;;;;;1.47;1.37;;;27.80;62.70;;;;;;5076891;28;20415;-73
2023/06/26 12:47:03;;;;;;;4.00;2.40;;;27.70;63.90;;;;;;5076547;28;20422;-71
2023/06/26 12:49:36;;;;;;;1.70;1.60;;;27.60;64.30;;;;;;5076481;28;20489;-73